CheckWX is a tool to help pilots better visualize weather data.  It is not intended as a substitute for an official pre-flight weather briefing.

14:44:48 UTC

EPLL METAR
Łódź Władysław Reymont Airport
Łódź, Poland
Current

15 mins ago

EPLL 201430Z 22008KT 190V250 9999 SCT048TCU 23/12 Q1004
Observed
May-20 @ 14:30 UTC
Wind
  • 220° at 8 KTS
Visibility
10,000+ meters
Flight Rules
VFR
Cloud Levels
  • Scattered at 4,800' AGL
Temperature
23°C / 73°F
Dewpoint
12°C / 54°F
Humidity
50%
Altimeter
29.65" Hg
Pressure
1003.92 hPa
Previous

45 mins ago

EPLL 201400Z 21007KT 140V250 9999 SCT046TCU 23/13 Q1004
Observed
May-20 @ 14:00 UTC
Wind
  • 210° at 7 KTS
Visibility
10,000+ meters
Flight Rules
VFR
Cloud Levels
  • Scattered at 4,600' AGL
Temperature
23°C / 73°F
Dewpoint
13°C / 55°F
Humidity
53%
Altimeter
29.65" Hg
Pressure
1003.92 hPa
Previous

1 hour ago

EPLL 201330Z 18006KT 110V230 9999 SCT043 SCT048 23/13 Q1004
Observed
May-20 @ 13:30 UTC
Wind
  • 180° at 6 KTS
Visibility
10,000+ meters
Flight Rules
VFR
Cloud Levels
  • Scattered at 4,300' AGL
  • Scattered at 4,800' AGL
Temperature
23°C / 73°F
Dewpoint
13°C / 55°F
Humidity
53%
Altimeter
29.65" Hg
Pressure
1003.92 hPa